LICT/TPS METAR and TAF weather

Enter ICAO airport designator
Station Type Date Time Source
LICT METAR 2021/05/17 20:55 UTC NOAA

LICT 172055Z 25003KT CAVOK 17/17 Q1015


Station Type Date Time Source
LICT Decoded METAR 2021/05/17 20:55 UTC NOAA

Trapani / Birgi, Italy (LICT) 37-55N 012-30E 14M
May 17, 2021 - 04:55 PM EDT / 2021.05.17 2055 UTC
Wind: from the WSW (250 degrees) at 3 MPH (3 KT):0
Visibility: greater than 7 mile(s):0
Temperature: 62 F (17 C)
Dew Point: 62 F (17 C)
Relative Humidity: 100%
Pressure (altimeter): 29.97 in. Hg (1015 hPa)
ob: LICT 172055Z 25003KT CAVOK 17/17 Q1015
cycle: 21

Station Type Date Time Source
LICT TAF 2021/02/10 12:24 UTC NOAA

TAF TAF LICT 101100Z 1012/1024 18015KT CAVOK
BECMG 1015/1017 7000 RA BKN018
BECMG 1018/1020 26020G32KT
TEMPO 1020/1024 27025G40KT TSRA SCT015CB BKN018

Example: see airport list